Time;durP1;ratioP1;P1;durP2;ratioP2;P2;SDS_P1;SDS_P2;PMS_P1;PMS_P2;Temp;Humidity;BMP_temperature;BMP_pressure;BME280_temperature;BME280_humidity;BME280_pressure;Samples;Min_cycle;Max_cycle;Signal;HPM_P1;HPM_P2
2022/09/08 00:02:04;;;;;;;222.78;204.20;;;;;;;4.96;100.00;101558.86;1801582;79;21681;-82
2022/09/08 00:04:31;;;;;;;219.03;200.30;;;;;;;4.93;100.00;101559.25;1801359;79;20975;-81
2022/09/08 00:06:57;;;;;;;242.28;221.50;;;;;;;4.94;100.00;101558.25;1801613;79;20990;-82
2022/09/08 00:09:23;;;;;;;223.35;204.55;;;;;;;4.95;100.00;101558.55;1801598;79;21491;-82
2022/09/08 00:11:51;;;;;;;231.53;212.35;;;;;;;4.94;100.00;101558.73;1801716;79;21022;-81
2022/09/08 00:14:18;;;;;;;213.18;195.97;;;;;;;4.91;100.00;101563.98;1804054;79;21009;-82
2022/09/08 00:16:44;;;;;;;162.45;149.10;;;;;;;4.89;100.00;101559.35;1805038;79;20968;-82
2022/09/08 00:19:10;;;;;;;229.93;211.18;;;;;;;4.88;100.00;101559.53;1805267;79;21046;-82
2022/09/08 00:21:36;;;;;;;224.47;205.22;;;;;;;4.89;100.00;101554.52;1804931;79;21013;-82
2022/09/08 00:24:02;;;;;;;217.82;200.38;;;;;;;4.84;100.00;101563.12;1804903;79;21041;-81
2022/09/08 00:26:28;;;;;;;212.00;194.77;;;;;;;4.83;100.00;101559.33;1802389;78;21756;-81
2022/09/08 00:28:54;;;;;;;195.10;178.82;;;;;;;4.82;100.00;101552.31;1801193;79;20899;-80
2022/09/08 00:31:20;;;;;;;167.82;154.05;;;;;;;4.78;100.00;101554.56;1801473;79;21479;-82
2022/09/08 00:33:47;;;;;;;156.43;143.55;;;;;;;4.80;100.00;101557.05;1801237;79;20863;-82
2022/09/08 00:36:15;;;;;;;138.97;127.75;;;;;;;4.78;100.00;101555.90;1801095;79;20997;-81
2022/09/08 00:38:50;;;;;;;131.97;121.57;;;;;;;4.76;100.00;101547.25;1731513;82;21291;-81
2022/09/08 00:41:21;;;;;;;195.22;179.80;;;;;;;4.74;100.00;101549.31;1697166;84;21056;-81
2022/09/08 00:43:58;;;;;;;178.38;163.87;;;;;;;4.69;100.00;101549.89;1697396;84;21084;-82
2022/09/08 00:46:30;;;;;;;130.05;119.87;;;;;;;4.68;100.00;101543.44;1697612;84;21113;-82
2022/09/08 00:49:16;;;;;;;187.07;172.70;;;;;;;4.68;100.00;101544.77;1695193;84;21049;-81
2022/09/08 00:51:53;;;;;;;180.10;165.70;;;;;;;4.66;100.00;101542.28;1691370;84;21554;-82
2022/09/08 00:54:19;;;;;;;179.00;164.65;;;;;;;4.64;100.00;101540.31;1685395;85;21029;-83
2022/09/08 00:56:48;;;;;;;163.07;150.25;;;;;;;4.62;100.00;101542.37;1685298;85;21037;-82
2022/09/08 00:59:18;;;;;;;193.72;178.40;;;;;;;4.62;100.00;101541.04;1685164;85;21353;-82
2022/09/08 01:01:45;;;;;;;178.07;164.32;;;;;;;4.59;100.00;101540.58;1685022;85;21605;-82
2022/09/08 01:04:11;;;;;;;168.05;155.15;;;;;;;4.59;100.00;101533.42;1685238;85;21135;-82
2022/09/08 01:12:53;;;;;;;131.05;120.75;;;;;;;4.55;100.00;101533.48;1680190;85;21088;-82
2022/09/08 01:15:23;;;;;;;136.22;125.45;;;;;;;4.53;100.00;101528.87;1680444;85;21037;-82
2022/09/08 01:17:53;;;;;;;110.32;101.75;;;;;;;4.50;100.00;101534.58;1657353;86;21093;-82
2022/09/08 01:20:39;;;;;;;160.78;148.30;;;;;;;4.46;100.00;101526.14;1657315;86;21112;-82
2022/09/08 01:23:40;;;;;;;109.60;100.80;;;;;;;4.44;100.00;101526.88;1587665;90;21605;-82
2022/09/08 01:26:20;;;;;;;136.60;125.62;;;;;;;4.38;100.00;101522.29;1597959;89;21153;-82
2022/09/08 01:28:51;;;;;;;146.15;134.35;;;;;;;4.32;100.00;101520.41;1598157;89;22294;-82
2022/09/08 01:31:19;;;;;;;149.93;138.40;;;;;;;4.28;100.00;101519.16;1598030;89;22112;-82
2022/09/08 01:33:45;;;;;;;154.45;142.85;;;;;;;4.24;100.00;101525.92;1597981;89;21038;-82
2022/09/08 01:36:15;;;;;;;148.70;137.05;;;;;;;4.23;100.00;101521.58;1598148;88;21140;-82
2022/09/08 01:38:43;;;;;;;102.00;93.78;;;;;;;4.21;100.00;101518.30;1596087;89;21048;-83
2022/09/08 01:41:09;;;;;;;132.25;121.53;;;;;;;4.12;100.00;101519.44;1595867;89;21235;-82
2022/09/08 01:43:35;;;;;;;153.53;140.97;;;;;;;4.08;100.00;101514.50;1615675;88;21155;-82
2022/09/08 01:46:02;;;;;;;150.25;137.68;;;;;;;4.07;100.00;101512.86;1615761;88;21005;-82
2022/09/08 01:48:28;;;;;;;155.90;143.52;;;;;;;4.07;100.00;101511.52;1615492;88;21604;-82
2022/09/08 01:51:02;;;;;;;147.45;135.82;;;;;;;4.07;100.00;101515.53;1615798;88;20906;-82
2022/09/08 01:53:29;;;;;;;85.75;78.37;;;;;;;4.05;100.00;101512.73;1615177;88;21056;-82
2022/09/08 01:55:55;;;;;;;104.25;95.28;;;;;;;4.01;100.00;101508.30;1615433;88;22065;-82
2022/09/08 01:58:22;;;;;;;101.35;92.97;;;;;;;4.00;100.00;101500.00;1615589;88;21048;-82
2022/09/08 02:00:48;;;;;;;95.47;87.27;;;;;;;3.95;100.00;101495.75;1620341;86;21098;-82
2022/09/08 02:03:14;;;;;;;108.15;99.15;;;;;;;3.90;100.00;101502.16;1669604;84;21603;-82
2022/09/08 02:05:43;;;;;;;147.15;135.32;;;;;;;3.86;100.00;101499.06;1686684;84;21048;-82
2022/09/08 02:08:10;;;;;;;178.23;163.77;;;;;;;3.87;100.00;101501.22;1697720;83;21104;-82
2022/09/08 02:10:37;;;;;;;150.85;139.03;;;;;;;3.86;100.00;101503.06;1697602;84;21611;-82
2022/09/08 02:13:04;;;;;;;156.25;143.70;;;;;;;3.87;100.00;101502.03;1697745;83;21050;-82
2022/09/08 02:15:30;;;;;;;163.92;151.27;;;;;;;3.87;100.00;101499.36;1739134;80;20991;-82
2022/09/08 02:18:00;;;;;;;158.97;146.55;;;;;;;3.87;100.00;101497.22;1747931;80;20998;-82
2022/09/08 02:20:27;;;;;;;106.22;96.00;;;;;;;3.86;100.00;101498.25;1730994;82;22150;-82
2022/09/08 02:22:54;;;;;;;140.92;129.35;;;;;;;3.83;100.00;101498.12;1762903;81;21022;-82
2022/09/08 02:25:21;;;;;;;129.05;118.40;;;;;;;3.82;100.00;101498.30;1763023;80;21031;-83
2022/09/08 02:27:52;;;;;;;137.40;126.42;;;;;;;3.78;100.00;101501.86;1762957;81;20974;-82
2022/09/08 02:30:20;;;;;;;130.20;119.45;;;;;;;3.76;100.00;101498.55;1761113;80;21601;-82
2022/09/08 02:32:46;;;;;;;134.30;123.53;;;;;;;3.74;100.00;101495.28;1746460;81;21242;-82
2022/09/08 02:35:13;;;;;;;188.03;173.13;;;;;;;3.75;100.00;101496.91;1746391;81;21030;-80
2022/09/08 02:37:39;;;;;;;108.10;99.50;;;;;;;3.77;100.00;101498.07;1763031;80;21022;-82
2022/09/08 02:40:06;;;;;;;156.02;143.85;;;;;;;3.73;100.00;101494.13;1760843;80;21467;-82
2022/09/08 02:42:32;;;;;;;124.65;114.70;;;;;;;3.73;100.00;101498.13;1716210;83;21011;-82
2022/09/08 02:44:58;;;;;;;142.22;130.87;;;;;;;3.73;100.00;101500.78;1782444;80;21010;-82
2022/09/08 02:47:24;;;;;;;157.78;145.15;;;;;;;3.72;100.00;101492.48;1782383;79;20893;-82
2022/09/08 02:49:50;;;;;;;157.22;144.55;;;;;;;3.71;100.00;101497.51;1782650;80;20889;-82
2022/09/08 02:52:16;;;;;;;132.40;121.90;;;;;;;3.70;100.00;101496.66;1782132;80;20853;-82
2022/09/08 02:54:42;;;;;;;137.68;126.58;;;;;;;3.69;100.00;101493.69;1762186;80;21076;-82
2022/09/08 02:57:08;;;;;;;162.85;150.20;;;;;;;3.66;100.00;101493.25;1762249;80;22004;-82
2022/09/08 02:59:34;;;;;;;143.00;131.40;;;;;;;3.67;100.00;101492.23;1762180;80;20979;-82
2022/09/08 03:02:00;;;;;;;128.05;117.82;;;;;;;3.66;100.00;101489.25;1762369;80;20986;-82
2022/09/08 03:04:27;;;;;;;160.03;147.15;;;;;;;3.64;100.00;101487.59;1761985;80;20876;-81
2022/09/08 03:06:53;;;;;;;145.53;133.18;;;;;;;3.64;100.00;101489.43;1762031;80;21085;-81
2022/09/08 03:09:19;;;;;;;135.82;124.78;;;;;;;3.64;100.00;101484.10;1758064;80;21295;-81
2022/09/08 03:11:45;;;;;;;139.95;128.65;;;;;;;3.67;100.00;101488.23;1762060;80;21061;-82
2022/09/08 03:14:11;;;;;;;98.07;89.58;;;;;;;3.67;100.00;101482.89;1762167;80;21026;-82
2022/09/08 03:16:37;;;;;;;103.42;94.52;;;;;;;3.69;100.00;101483.02;1762267;80;21571;-82
2022/09/08 03:19:04;;;;;;;121.80;111.70;;;;;;;3.72;100.00;101478.64;1773244;78;21040;-82
2022/09/08 03:21:30;;;;;;;95.40;87.02;;;;;;;3.74;100.00;101482.46;1827884;78;21590;-82
2022/09/08 03:23:57;;;;;;;97.45;88.65;;;;;;;3.74;100.00;101481.13;1828355;78;21676;-82
2022/09/08 03:26:24;;;;;;;98.85;89.92;;;;;;;3.81;100.00;101481.99;1828099;78;21026;-82
2022/09/08 03:28:50;;;;;;;95.65;86.97;;;;;;;3.86;100.00;101481.73;1828073;78;20959;-82
2022/09/08 03:31:19;;;;;;;106.92;97.53;;;;;;;3.92;100.00;101481.47;1828481;78;21010;-82
2022/09/08 03:33:46;;;;;;;101.40;92.57;;;;;;;3.98;100.00;101474.54;1828284;78;21168;-81
2022/09/08 03:36:15;;;;;;;94.97;86.45;;;;;;;4.03;100.00;101472.94;1828068;78;21053;-81
2022/09/08 03:38:41;;;;;;;116.10;106.15;;;;;;;4.12;100.00;101475.44;1803392;78;21467;-81
2022/09/08 03:41:13;;;;;;;147.00;134.70;;;;;;;4.20;100.00;101472.11;1828289;78;20979;-81
2022/09/08 03:43:46;;;;;;;130.67;119.27;;;;;;;4.32;100.00;101481.72;1828734;78;20975;-81
2022/09/08 03:46:13;;;;;;;103.85;94.92;;;;;;;4.44;100.00;101485.51;1759979;81;21146;-81
2022/09/08 03:48:39;;;;;;;124.65;113.70;;;;;;;4.57;100.00;101484.74;1759768;81;21554;-81
2022/09/08 03:51:15;;;;;;;91.72;83.47;;;;;;;4.69;100.00;101482.33;1759782;81;20955;-81
2022/09/08 03:53:43;;;;;;;109.55;99.90;;;;;;;4.83;100.00;101480.55;1735664;81;21485;-81
2022/09/08 03:56:11;;;;;;;117.22;105.83;;;;;;;4.98;100.00;101482.03;1732507;82;21580;-82
2022/09/08 03:58:38;;;;;;;151.25;138.28;;;;;;;5.14;100.00;101482.69;1732360;82;21153;-81
2022/09/08 04:01:14;;;;;;;187.22;171.57;;;;;;;5.30;100.00;101490.86;1732189;82;21190;-81
2022/09/08 04:03:40;;;;;;;138.40;125.85;;;;;;;5.48;100.00;101488.93;1731977;82;21037;-82
2022/09/08 04:06:07;;;;;;;149.42;137.07;;;;;;;5.98;100.00;101488.05;1731706;82;21088;-83
2022/09/08 04:08:34;;;;;;;194.22;178.82;;;;;;;7.21;100.00;101477.33;1731626;82;21017;-82
2022/09/08 04:11:01;;;;;;;196.75;181.50;;;;;;;8.54;100.00;101476.20;1731419;82;22165;-83
2022/09/08 04:13:28;;;;;;;163.00;150.10;;;;;;;9.86;100.00;101474.84;1731210;82;21081;-83
2022/09/08 04:15:54;;;;;;;128.72;118.77;;;;;;;11.08;100.00;101468.53;1731629;82;21034;-83
2022/09/08 04:18:20;;;;;;;125.22;115.28;;;;;;;12.18;100.00;101464.97;1731627;82;21490;-83
2022/09/08 04:20:56;;;;;;;140.77;129.42;;;;;;;13.34;100.00;101469.84;1732896;81;21081;-87
2022/09/08 04:23:22;;;;;;;150.57;138.35;;;;;;;14.42;100.00;101461.95;1731991;81;22155;-81
2022/09/08 04:26:05;;;;;;;154.68;142.13;;;;;;;15.50;100.00;101465.76;1746844;81;20890;-82
2022/09/08 04:28:33;;;;;;;151.12;139.22;;;;;;;16.27;100.00;101456.45;1743900;81;21022;-79
2022/09/08 04:31:06;;;;;;;145.15;133.15;;;;;;;16.73;100.00;101460.89;1739544;81;21215;-85
2022/09/08 04:33:32;;;;;;;141.88;130.40;;;;;;;17.66;100.00;101468.75;1744050;81;21093;-83
2022/09/08 04:36:02;;;;;;;173.28;159.35;;;;;;;18.50;100.00;101463.83;1736156;81;21062;-85
2022/09/08 04:38:28;;;;;;;204.63;188.32;;;;;;;19.49;100.00;101464.33;1740859;81;20999;-83
2022/09/08 04:40:54;;;;;;;229.65;212.05;;;;;;;20.41;95.27;101470.92;1748182;81;20854;-82
2022/09/08 04:43:20;;;;;;;229.53;212.02;;;;;;;21.00;80.63;101470.23;1747700;81;21789;-84
2022/09/08 04:45:46;;;;;;;218.37;200.95;;;;;;;21.31;77.10;101472.52;1738931;81;21092;-86
2022/09/08 04:48:12;;;;;;;227.75;209.50;;;;;;;21.90;68.81;101468.90;1734227;81;21200;-86
2022/09/08 04:50:38;;;;;;;202.13;186.47;;;;;;;22.25;66.95;101474.02;1833410;77;21491;-82
2022/09/08 04:53:04;;;;;;;174.20;160.65;;;;;;;22.89;64.40;101466.09;1827753;77;20893;-82
